createdAt,value
2019-02-12T00:09:00.609Z,2.20
2019-02-12T00:11:40.107Z,2.20
2019-02-12T00:14:20.092Z,3.60
2019-02-12T00:17:00.214Z,1.80
2019-02-12T00:19:40.237Z,3.40
2019-02-12T00:22:20.289Z,2.00
2019-02-12T00:25:00.342Z,2.70
2019-02-12T00:27:40.488Z,3.00
2019-02-12T00:30:20.686Z,2.40
2019-02-12T00:33:00.770Z,2.20
2019-02-12T00:35:40.965Z,2.50
2019-02-12T00:38:21.047Z,1.40
2019-02-12T00:41:01.127Z,2.20
2019-02-12T00:43:41.086Z,2.10
2019-02-12T00:46:21.182Z,2.00
2019-02-12T00:49:01.382Z,2.00
2019-02-12T00:51:41.649Z,2.00
2019-02-12T00:54:21.471Z,2.00
2019-02-12T00:57:01.402Z,2.00
2019-02-12T00:59:41.367Z,2.70
2019-02-12T01:02:21.526Z,2.30
2019-02-12T01:05:01.664Z,2.10
2019-02-12T01:07:41.477Z,2.00
2019-02-12T01:10:21.546Z,2.00
2019-02-12T01:13:01.645Z,1.80
2019-02-12T01:15:41.829Z,1.80
2019-02-12T01:18:21.654Z,2.00
2019-02-12T01:21:01.621Z,1.40
2019-02-12T01:23:41.375Z,1.90
2019-02-12T01:26:21.502Z,2.00
2019-02-12T01:29:01.386Z,1.90
2019-02-12T01:31:41.443Z,1.90
2019-02-12T01:34:20.579Z,1.60
2019-02-12T01:37:00.769Z,1.90
2019-02-12T01:39:40.742Z,1.80
2019-02-12T01:42:20.691Z,1.90
2019-02-12T01:45:00.571Z,1.80
2019-02-12T01:47:40.484Z,1.90
2019-02-12T01:50:20.367Z,1.80
2019-02-12T01:53:00.338Z,2.00
2019-02-12T01:55:39.630Z,1.50
2019-02-12T01:58:19.654Z,2.20
2019-02-12T02:00:59.787Z,3.70
2019-02-12T02:03:39.190Z,2.10
2019-02-12T02:06:19.410Z,2.00
2019-02-12T02:08:59.476Z,1.30
2019-02-12T02:11:39.350Z,2.20
2019-02-12T02:14:19.458Z,2.30
2019-02-12T02:16:59.529Z,2.20
2019-02-12T02:19:39.626Z,1.90
2019-02-12T02:22:19.559Z,3.50
2019-02-12T02:24:59.713Z,1.10
2019-02-12T02:27:39.651Z,1.40
2019-02-12T02:30:19.659Z,2.50
2019-02-12T02:32:59.713Z,2.20
2019-02-12T02:35:39.855Z,1.40
2019-02-12T02:38:06.710Z,2.00
2019-02-12T02:40:53.127Z,2.20
2019-02-12T02:43:39.534Z,2.10
2019-02-12T02:46:25.954Z,2.10
2019-02-12T02:49:12.373Z,2.10
2019-02-12T02:51:59.061Z,2.10
2019-02-12T02:54:45.522Z,1.30
2019-02-12T02:57:32.221Z,3.90
2019-02-12T03:00:18.606Z,2.20
2019-02-12T03:03:05.357Z,2.10
2019-02-12T03:05:51.757Z,2.40
2019-02-12T03:08:38.282Z,2.10
2019-02-12T03:11:05.028Z,2.00
2019-02-12T03:13:51.603Z,2.00
2019-02-12T03:16:38.247Z,2.00
2019-02-12T03:19:05.029Z,2.00
2019-02-12T03:21:51.430Z,2.10
2019-02-12T03:24:37.891Z,2.10
2019-02-12T03:27:24.306Z,2.20
2019-02-12T03:30:03.991Z,2.00
2019-02-12T03:32:43.857Z,2.80
2019-02-12T03:35:23.926Z,1.90
2019-02-12T03:38:04.206Z,1.90
2019-02-12T03:40:44.239Z,1.90
2019-02-12T03:43:23.495Z,1.90
2019-02-12T03:46:03.820Z,1.80
2019-02-12T03:48:43.787Z,1.70
2019-02-12T03:51:23.874Z,1.90
2019-02-12T03:54:03.785Z,1.90
2019-02-12T03:56:30.725Z,1.60
2019-02-12T03:59:17.481Z,1.90
2019-02-12T04:02:03.915Z,1.90
2019-02-12T04:04:50.326Z,2.20
2019-02-12T04:07:36.974Z,3.70
2019-02-12T04:10:23.699Z,2.90
2019-02-12T04:13:10.113Z,2.20
2019-02-12T04:15:56.580Z,2.00
2019-02-12T04:18:42.997Z,3.80
2019-02-12T04:21:29.397Z,1.70
2019-02-12T04:24:15.802Z,2.20
2019-02-12T04:27:02.203Z,1.50
2019-02-12T04:29:41.470Z,2.60
2019-02-12T04:32:21.610Z,1.40
2019-02-12T04:35:30.541Z,1.80
2019-02-12T04:37:51.668Z,1.80
2019-02-12T04:40:31.487Z,2.00
2019-02-12T04:43:11.302Z,2.00
2019-02-12T04:45:51.387Z,2.00
2019-02-12T04:48:31.240Z,1.90
2019-02-12T04:51:11.180Z,1.80
2019-02-12T04:53:50.367Z,1.90
2019-02-12T04:56:30.330Z,2.20
2019-02-12T04:59:10.349Z,2.60
2019-02-12T05:01:50.404Z,2.00
2019-02-12T05:04:30.442Z,1.90
2019-02-12T05:07:10.862Z,1.90
2019-02-12T05:09:50.789Z,2.80
2019-02-12T05:12:30.866Z,2.00
2019-02-12T05:15:10.878Z,1.90
2019-02-12T05:17:50.961Z,1.30
2019-02-12T05:20:31.368Z,1.90
2019-02-12T05:23:11.558Z,2.80
2019-02-12T05:25:51.677Z,1.80
2019-02-12T05:31:46.767Z,1.80
2019-02-12T05:34:26.563Z,2.00
2019-02-12T05:37:06.607Z,1.40
2019-02-12T05:39:46.866Z,3.00
2019-02-12T05:42:26.741Z,1.90
2019-02-12T05:45:06.775Z,2.80
2019-02-12T05:47:46.726Z,2.30
2019-02-12T05:50:26.807Z,1.70
2019-02-12T05:53:06.844Z,1.80
2019-02-12T05:55:47.046Z,1.90
2019-02-12T05:58:27.106Z,1.80
2019-02-12T06:01:07.180Z,0.30
2019-02-12T06:03:47.199Z,2.20
2019-02-12T06:06:27.265Z,3.90
2019-02-12T06:09:07.217Z,2.00
2019-02-12T06:11:47.514Z,1.30
2019-02-12T06:14:27.034Z,1.40
2019-02-12T06:17:07.069Z,1.90
2019-02-12T06:19:47.206Z,1.90
2019-02-12T06:22:29.087Z,2.20
2019-02-12T06:25:08.520Z,1.90
2019-02-12T06:27:48.455Z,2.80
2019-02-12T06:30:28.206Z,1.80
2019-02-12T06:33:08.389Z,1.90
2019-02-12T06:35:48.425Z,2.00
2019-02-12T06:38:28.312Z,1.80
2019-02-12T06:41:07.790Z,2.20
2019-02-12T06:43:47.520Z,1.80
2019-02-12T06:46:29.472Z,1.90
2019-02-12T06:49:09.734Z,1.80
2019-02-12T06:51:49.749Z,2.20
2019-02-12T06:54:29.827Z,2.10
2019-02-12T06:57:09.946Z,2.00
2019-02-12T06:59:49.920Z,2.00
2019-02-12T07:02:29.824Z,2.00
2019-02-12T07:05:09.860Z,2.10
2019-02-12T07:07:49.771Z,2.00
2019-02-12T07:10:30.134Z,3.00
2019-02-12T07:13:10.012Z,1.90
2019-02-12T07:15:49.822Z,2.20
2019-02-12T07:18:29.750Z,2.00
2019-02-12T07:21:09.642Z,2.00
2019-02-12T07:23:49.757Z,3.80
2019-02-12T07:26:29.891Z,2.50
2019-02-12T07:29:09.878Z,2.00
2019-02-12T07:31:49.699Z,2.00
2019-02-12T07:34:29.802Z,3.40
2019-02-12T07:37:10.209Z,2.70
2019-02-12T07:39:49.857Z,1.70
2019-02-12T07:42:30.007Z,2.10
2019-02-12T07:45:10.118Z,3.80
2019-02-12T07:47:50.194Z,2.20
2019-02-12T07:50:30.374Z,1.60
2019-02-12T07:53:10.269Z,3.00
2019-02-12T07:55:51.457Z,2.20
2019-02-12T07:58:31.419Z,1.60
2019-02-12T08:01:11.471Z,2.20
2019-02-12T08:03:51.445Z,2.90
2019-02-12T08:06:31.391Z,2.80
2019-02-12T08:09:11.542Z,2.80
2019-02-12T08:11:50.741Z,2.20
2019-02-12T08:14:30.849Z,2.30
2019-02-12T08:17:10.970Z,2.40
2019-02-12T08:19:51.171Z,2.40
2019-02-12T08:22:31.246Z,3.10
2019-02-12T08:25:11.357Z,2.90
2019-02-12T08:27:50.620Z,3.10
2019-02-12T08:30:30.568Z,2.70
2019-02-12T08:33:36.616Z,2.40
2019-02-12T08:36:42.679Z,2.50
2019-02-12T08:39:48.721Z,2.70
2019-02-12T08:42:54.796Z,2.70
2019-02-12T08:45:45.977Z,2.70
2019-02-12T08:48:52.041Z,2.90
2019-02-12T08:51:58.090Z,4.70
2019-02-12T08:55:04.131Z,2.90
2019-02-12T08:58:10.186Z,3.10
2019-02-12T09:01:16.222Z,2.80
2019-02-12T09:04:22.503Z,5.40
2019-02-12T09:07:28.579Z,3.70
2019-02-12T09:10:34.625Z,5.00
2019-02-12T09:13:40.770Z,3.80
2019-02-12T09:16:46.837Z,4.80
2019-02-12T09:19:52.885Z,3.60
2019-02-12T09:22:58.990Z,3.40
2019-02-12T09:25:58.082Z,3.50
2019-02-12T09:29:04.121Z,3.40
2019-02-12T09:31:44.052Z,3.40
2019-02-12T09:34:24.086Z,3.40
2019-02-12T09:37:03.975Z,3.30
2019-02-12T09:39:44.018Z,3.30
2019-02-12T09:42:24.069Z,4.70
2019-02-12T09:45:04.216Z,3.70
2019-02-12T09:47:44.501Z,3.40
2019-02-12T09:50:24.270Z,4.80
2019-02-12T09:53:04.326Z,3.50
2019-02-12T09:55:44.342Z,4.40
2019-02-12T09:58:24.597Z,4.00
2019-02-12T10:01:04.468Z,3.40
2019-02-12T10:03:43.870Z,3.50
2019-02-12T10:06:24.376Z,4.70
2019-02-12T10:09:04.362Z,3.80
2019-02-12T10:11:43.822Z,4.10
2019-02-12T10:14:23.937Z,4.30
2019-02-12T10:17:03.967Z,5.20
2019-02-12T10:19:43.888Z,5.20
2019-02-12T10:22:23.118Z,5.00
2019-02-12T10:25:03.076Z,4.60
2019-02-12T10:27:42.990Z,4.40
2019-02-12T10:30:23.127Z,4.10
2019-02-12T10:33:03.265Z,4.10
2019-02-12T10:35:43.390Z,4.10
2019-02-12T10:38:22.682Z,4.20
2019-02-12T10:41:02.633Z,4.00
2019-02-12T10:43:42.634Z,4.10
2019-02-12T10:46:21.846Z,4.60
2019-02-12T10:49:02.078Z,4.90
2019-02-12T10:51:41.401Z,4.70
2019-02-12T10:54:27.782Z,4.70
2019-02-12T10:57:03.197Z,4.00
2019-02-12T10:59:42.422Z,4.50
2019-02-12T11:02:22.750Z,4.40
2019-02-12T11:05:02.547Z,4.50
2019-02-12T11:07:42.670Z,4.60
2019-02-12T11:10:22.706Z,5.40
2019-02-12T11:13:02.511Z,6.60
2019-02-12T11:15:42.582Z,4.60
2019-02-12T11:18:22.630Z,6.10
2019-02-12T11:21:02.974Z,4.20
2019-02-12T11:23:42.590Z,4.30
2019-02-12T11:26:21.830Z,5.70
2019-02-12T11:29:02.002Z,4.50
2019-02-12T11:31:42.098Z,4.80
2019-02-12T11:34:21.398Z,5.20
2019-02-12T11:37:01.524Z,6.40
2019-02-12T11:39:41.457Z,4.40
2019-02-12T11:42:21.649Z,4.30
2019-02-12T11:45:01.805Z,6.10
2019-02-12T11:47:41.765Z,4.60
2019-02-12T11:50:21.902Z,5.90
2019-02-12T11:53:02.039Z,5.00
2019-02-12T11:55:42.125Z,4.40
2019-02-12T12:01:34.568Z,4.30
2019-02-12T12:04:14.572Z,4.40
2019-02-12T12:06:54.699Z,4.60
2019-02-12T12:09:34.530Z,4.90
2019-02-12T12:12:14.678Z,4.90
2019-02-12T12:14:54.897Z,4.40
2019-02-12T12:17:34.687Z,4.80
2019-02-12T12:20:13.925Z,4.70
2019-02-12T12:22:54.254Z,6.50
2019-02-12T12:25:33.986Z,4.30
2019-02-12T12:28:00.757Z,6.30
2019-02-12T12:30:40.061Z,4.70
2019-02-12T12:33:20.553Z,4.30
2019-02-12T12:36:00.181Z,4.30
2019-02-12T12:38:40.125Z,4.50
2019-02-12T12:41:20.204Z,4.60
2019-02-12T12:44:00.398Z,4.30
2019-02-12T12:46:40.526Z,4.40
2019-02-12T12:49:20.357Z,4.70
2019-02-12T12:52:00.419Z,4.30
2019-02-12T12:54:40.350Z,5.30
2019-02-12T12:57:20.586Z,5.00
2019-02-12T13:00:00.469Z,4.60
2019-02-12T13:02:40.358Z,4.80
2019-02-12T13:05:19.542Z,4.80
2019-02-12T13:07:59.642Z,4.40
2019-02-12T13:10:39.996Z,5.00
2019-02-12T13:13:19.640Z,4.80
2019-02-12T13:15:59.850Z,4.70
2019-02-12T13:18:39.105Z,5.00
2019-02-12T13:21:19.193Z,5.10
2019-02-12T13:23:59.671Z,4.80
2019-02-12T13:26:39.381Z,4.80
2019-02-12T13:29:18.505Z,5.00
2019-02-12T13:31:58.546Z,4.90
2019-02-12T13:34:38.571Z,4.00
2019-02-12T13:37:05.325Z,4.80
2019-02-12T13:39:51.737Z,4.70
2019-02-12T13:42:38.267Z,4.90
2019-02-12T13:45:07.269Z,6.10
2019-02-12T13:47:53.957Z,4.70
2019-02-12T13:50:40.461Z,4.80
2019-02-12T13:53:26.861Z,4.60
2019-02-12T13:56:13.255Z,4.40
2019-02-12T13:58:59.927Z,4.70
2019-02-12T14:01:46.326Z,4.60
2019-02-12T14:04:33.188Z,4.40
2019-02-12T14:07:19.613Z,4.50
2019-02-12T14:10:06.307Z,3.60
2019-02-12T14:12:52.730Z,4.90
2019-02-12T14:15:39.334Z,3.70
2019-02-12T14:18:25.751Z,4.90
2019-02-12T14:21:12.438Z,4.80
2019-02-12T14:23:59.105Z,4.60
2019-02-12T14:26:45.883Z,4.80
2019-02-12T14:29:54.190Z,5.20
2019-02-12T14:32:40.840Z,4.50
2019-02-12T14:35:27.597Z,4.60
2019-02-12T14:38:14.077Z,3.70
2019-02-12T14:41:00.597Z,4.10
2019-02-12T14:43:47.114Z,4.70
2019-02-12T14:46:33.642Z,4.40
2019-02-12T14:49:20.450Z,4.60
2019-02-12T14:52:06.938Z,4.30
2019-02-12T14:54:53.335Z,4.40
2019-02-12T14:57:39.745Z,4.40
2019-02-12T15:00:26.645Z,4.30
2019-02-12T15:03:13.087Z,5.80
2019-02-12T15:05:59.497Z,4.00
2019-02-12T15:08:45.916Z,6.30
2019-02-12T15:11:32.972Z,4.10
2019-02-12T15:19:52.741Z,4.40
2019-02-12T15:22:39.443Z,4.20
2019-02-12T15:25:25.958Z,4.50
2019-02-12T15:28:12.461Z,4.90
2019-02-12T15:30:52.051Z,3.80
2019-02-12T15:33:31.676Z,4.00
2019-02-12T15:36:11.510Z,5.90
2019-02-12T15:38:51.132Z,5.90
2019-02-12T15:41:31.155Z,4.60
2019-02-12T15:44:11.149Z,4.00
2019-02-12T15:46:51.178Z,3.90
2019-02-12T15:49:31.178Z,2.90
2019-02-12T15:52:11.822Z,3.90
2019-02-12T15:54:51.378Z,3.90
2019-02-12T15:57:31.586Z,4.20
2019-02-12T16:00:11.793Z,4.10
2019-02-12T16:02:38.913Z,3.80
2019-02-12T16:05:08.473Z,3.90
2019-02-12T16:07:56.329Z,3.70
2019-02-12T16:10:42.981Z,3.70
2019-02-12T16:15:47.111Z,3.90
2019-02-12T16:18:26.755Z,3.80
2019-02-12T16:21:06.950Z,4.80
2019-02-12T16:23:47.199Z,3.90
2019-02-12T16:26:27.421Z,3.40
2019-02-12T16:29:07.053Z,3.40
2019-02-12T16:31:46.969Z,3.40
2019-02-12T16:34:27.041Z,3.30
2019-02-12T16:37:07.150Z,3.40
2019-02-12T16:39:47.058Z,3.40
2019-02-12T16:42:27.494Z,3.50
2019-02-12T16:45:07.223Z,3.60
2019-02-12T16:47:47.167Z,3.40
2019-02-12T16:50:27.291Z,4.60
2019-02-12T16:53:07.578Z,3.50
2019-02-12T16:55:47.718Z,3.40
2019-02-12T16:58:27.737Z,3.40
2019-02-12T17:01:07.125Z,3.70
2019-02-12T17:03:46.973Z,2.80
2019-02-12T17:06:27.395Z,3.50
2019-02-12T17:09:07.289Z,3.80
2019-02-12T17:11:47.178Z,3.30
2019-02-12T17:14:27.119Z,3.70
2019-02-12T17:17:07.070Z,3.20
2019-02-12T17:19:47.371Z,3.30
2019-02-12T17:22:27.538Z,3.30
2019-02-12T17:25:07.190Z,3.30
2019-02-12T17:27:48.062Z,3.80
2019-02-12T17:30:27.498Z,3.30
2019-02-12T17:33:06.705Z,3.20
2019-02-12T17:35:46.988Z,4.80
2019-02-12T17:38:26.857Z,3.10
2019-02-12T17:41:07.093Z,2.70
2019-02-12T17:43:47.235Z,4.70
2019-02-12T17:46:26.993Z,3.10
2019-02-12T17:49:06.281Z,3.20
2019-02-12T17:51:46.311Z,3.10
2019-02-12T17:54:26.882Z,3.10
2019-02-12T17:57:06.904Z,3.10
2019-02-12T17:59:46.684Z,3.10
2019-02-12T18:02:26.602Z,3.00
2019-02-12T18:05:06.662Z,2.90
2019-02-12T18:07:46.677Z,4.50
2019-02-12T18:10:25.877Z,4.60
2019-02-12T18:13:05.896Z,3.10
2019-02-12T18:15:46.198Z,2.90
2019-02-12T18:18:26.275Z,4.60
2019-02-12T18:21:06.430Z,3.20
2019-02-12T18:23:46.518Z,3.20
2019-02-12T18:26:33.107Z,3.20
2019-02-12T18:29:07.795Z,3.30
2019-02-12T18:31:47.666Z,3.20
2019-02-12T18:34:27.675Z,3.20
2019-02-12T18:37:07.532Z,2.80
2019-02-12T18:39:47.525Z,2.80
2019-02-12T18:42:14.743Z,2.80
2019-02-12T18:45:01.512Z,3.20
2019-02-12T18:47:48.063Z,3.20
2019-02-12T18:50:34.790Z,3.40
2019-02-12T18:53:21.464Z,3.30
2019-02-12T18:56:07.894Z,5.20
2019-02-12T18:58:54.625Z,2.80
2019-02-12T19:01:41.400Z,2.90
2019-02-12T19:04:28.111Z,3.20
2019-02-12T19:07:15.586Z,2.10
2019-02-12T19:10:02.384Z,2.70
2019-02-12T19:12:48.850Z,3.50
2019-02-12T19:15:35.361Z,3.20
2019-02-12T19:18:23.170Z,4.30
2019-02-12T19:21:09.982Z,3.20
2019-02-12T19:23:56.425Z,2.80
2019-02-12T19:26:49.748Z,3.10
2019-02-12T19:29:31.415Z,4.80
2019-02-12T19:32:17.901Z,4.20
2019-02-12T19:35:05.556Z,3.30
2019-02-12T19:37:52.141Z,3.20
2019-02-12T19:40:38.582Z,3.60
2019-02-12T19:43:25.729Z,3.20
2019-02-12T19:46:12.149Z,3.00
2019-02-12T19:48:58.757Z,2.90
2019-02-12T19:51:45.516Z,3.30
2019-02-12T19:54:31.925Z,3.20
2019-02-12T19:57:18.826Z,3.60
2019-02-12T20:03:13.867Z,3.20
2019-02-12T20:06:00.942Z,3.70
2019-02-12T20:08:47.732Z,2.90
2019-02-12T20:11:34.242Z,2.90
2019-02-12T20:14:20.645Z,3.40
2019-02-12T20:17:07.225Z,3.40
2019-02-12T20:19:53.934Z,5.30
2019-02-12T20:22:40.605Z,3.20
2019-02-12T20:25:27.018Z,4.90
2019-02-12T20:28:13.441Z,2.90
2019-02-12T20:30:52.835Z,2.70
2019-02-12T20:33:33.211Z,3.50
2019-02-12T20:36:13.009Z,3.80
2019-02-12T20:38:52.974Z,2.40
2019-02-12T20:41:33.134Z,3.80
2019-02-12T20:44:13.346Z,3.50
2019-02-12T20:46:53.706Z,3.20
2019-02-12T20:49:33.638Z,3.20
2019-02-12T20:52:13.832Z,3.20
2019-02-12T20:54:53.754Z,3.40
2019-02-12T20:57:33.810Z,3.30
2019-02-12T21:00:14.169Z,3.50
2019-02-12T21:02:53.991Z,4.00
2019-02-12T21:05:34.282Z,3.70
2019-02-12T21:08:14.058Z,2.30
2019-02-12T21:10:54.146Z,2.90
2019-02-12T21:13:34.330Z,3.10
2019-02-12T21:16:13.549Z,3.30
2019-02-12T21:18:52.854Z,3.10
2019-02-12T21:21:32.684Z,3.20
2019-02-12T21:24:12.222Z,3.30
2019-02-12T21:26:52.056Z,3.20
2019-02-12T21:29:31.418Z,3.70
2019-02-12T21:32:11.961Z,3.00
2019-02-12T21:34:51.938Z,3.30
2019-02-12T21:37:31.878Z,4.90
2019-02-12T21:40:12.038Z,3.20
2019-02-12T21:42:52.391Z,4.50
2019-02-12T21:45:32.407Z,3.20
2019-02-12T21:48:12.502Z,3.20
2019-02-12T21:50:52.883Z,3.50
2019-02-12T21:53:33.173Z,3.20
2019-02-12T21:56:13.062Z,3.10
2019-02-12T21:58:52.946Z,3.20
2019-02-12T22:01:33.356Z,3.10
2019-02-12T22:04:13.324Z,2.60
2019-02-12T22:06:53.272Z,3.50
2019-02-12T22:09:20.045Z,4.20
2019-02-12T22:12:06.461Z,3.20
2019-02-12T22:14:53.131Z,3.50
2019-02-12T22:17:39.840Z,3.20
2019-02-12T22:20:26.357Z,3.90
2019-02-12T22:23:12.745Z,3.10
2019-02-12T22:25:59.697Z,4.80
2019-02-12T22:28:46.364Z,3.10
2019-02-12T22:31:26.181Z,4.50
2019-02-12T22:34:06.594Z,2.60
2019-02-12T22:36:46.414Z,3.10
2019-02-12T22:39:26.306Z,2.90
2019-02-12T22:42:06.565Z,3.20
2019-02-12T22:44:46.674Z,2.70
2019-02-12T22:47:26.972Z,3.10
2019-02-12T22:50:06.822Z,3.20
2019-02-12T22:52:46.869Z,3.10
2019-02-12T22:55:27.173Z,3.90
2019-02-12T22:58:06.727Z,3.30
2019-02-12T23:01:06.479Z,3.10
2019-02-12T23:03:46.067Z,4.00
2019-02-12T23:06:25.981Z,2.20
2019-02-12T23:08:52.853Z,3.80
2019-02-12T23:11:39.297Z,3.10
2019-02-12T23:14:26.250Z,4.40
2019-02-12T23:17:12.758Z,3.10
2019-02-12T23:19:59.171Z,3.00
2019-02-12T23:22:45.677Z,3.20
2019-02-12T23:25:32.200Z,3.20
2019-02-12T23:27:58.958Z,3.20
2019-02-12T23:30:39.153Z,3.20
2019-02-12T23:33:19.299Z,3.10
2019-02-12T23:35:59.495Z,3.40
2019-02-12T23:38:26.249Z,3.40
2019-02-12T23:41:12.778Z,3.00
2019-02-12T23:43:59.277Z,2.90
2019-02-12T23:46:45.684Z,3.10
2019-02-12T23:49:32.085Z,3.00
2019-02-12T23:52:18.492Z,3.00
2019-02-12T23:55:05.103Z,3.00
2019-02-12T23:57:51.534Z,3.00
